sensor_id;sensor_type;location;lat;lon;timestamp;pressure;altitude;pressure_sealevel;temperature;humidity
54554;BME280;40450;55.848;-3.572;2022-08-19T00:02:11;98598.87;;;11.15;91.04
54554;BME280;40450;55.848;-3.572;2022-08-19T00:04:36;98606.77;;;11.33;90.67
54554;BME280;40450;55.848;-3.572;2022-08-19T00:07:07;98604.92;;;11.07;91.51
54554;BME280;40450;55.848;-3.572;2022-08-19T00:09:42;98600.81;;;11.12;91.29
54554;BME280;40450;55.848;-3.572;2022-08-19T00:12:07;98607.63;;;11.24;91.09
54554;BME280;40450;55.848;-3.572;2022-08-19T00:14:38;98604.46;;;10.52;92.87
54554;BME280;40450;55.848;-3.572;2022-08-19T00:17:08;98607.50;;;10.53;92.91
54554;BME280;40450;55.848;-3.572;2022-08-19T00:19:39;98606.15;;;11.13;91.39
54554;BME280;40450;55.848;-3.572;2022-08-19T00:22:08;98607.73;;;10.95;91.22
54554;BME280;40450;55.848;-3.572;2022-08-19T00:24:43;98606.78;;;10.98;91.12
54554;BME280;40450;55.848;-3.572;2022-08-19T00:27:10;98613.14;;;11.32;90.57
54554;BME280;40450;55.848;-3.572;2022-08-19T00:29:39;98615.45;;;11.33;90.38
54554;BME280;40450;55.848;-3.572;2022-08-19T00:32:09;98616.97;;;11.55;89.76
54554;BME280;40450;55.848;-3.572;2022-08-19T00:34:40;98615.25;;;11.01;91.24
54554;BME280;40450;55.848;-3.572;2022-08-19T00:37:15;98613.07;;;11.71;89.55
54554;BME280;40450;55.848;-3.572;2022-08-19T00:39:40;98610.50;;;11.48;89.71
54554;BME280;40450;55.848;-3.572;2022-08-19T00:42:11;98608.79;;;11.74;88.81
54554;BME280;40450;55.848;-3.572;2022-08-19T00:44:42;98609.43;;;12.50;86.65
54554;BME280;40450;55.848;-3.572;2022-08-19T00:47:12;98609.90;;;12.17;87.56
54554;BME280;40450;55.848;-3.572;2022-08-19T00:49:47;98612.92;;;12.05;87.84
54554;BME280;40450;55.848;-3.572;2022-08-19T00:52:15;98606.32;;;11.55;88.77
54554;BME280;40450;55.848;-3.572;2022-08-19T00:54:43;98605.44;;;11.41;89.81
54554;BME280;40450;55.848;-3.572;2022-08-19T00:57:17;98605.79;;;11.78;89.10
54554;BME280;40450;55.848;-3.572;2022-08-19T00:59:46;98610.03;;;11.86;88.10
54554;BME280;40450;55.848;-3.572;2022-08-19T01:02:15;98614.68;;;12.04;87.61
54554;BME280;40450;55.848;-3.572;2022-08-19T01:04:44;98619.61;;;12.34;86.93
54554;BME280;40450;55.848;-3.572;2022-08-19T01:07:14;98616.94;;;12.88;85.60
54554;BME280;40450;55.848;-3.572;2022-08-19T01:09:46;98618.45;;;12.74;85.02
54554;BME280;40450;55.848;-3.572;2022-08-19T01:12:16;98614.84;;;12.90;84.12
54554;BME280;40450;55.848;-3.572;2022-08-19T01:14:47;98611.69;;;13.19;83.54
54554;BME280;40450;55.848;-3.572;2022-08-19T01:17:17;98608.51;;;13.07;83.24
54554;BME280;40450;55.848;-3.572;2022-08-19T01:19:47;98612.51;;;13.64;81.75
54554;BME280;40450;55.848;-3.572;2022-08-19T01:22:25;98611.45;;;13.77;81.23
54554;BME280;40450;55.848;-3.572;2022-08-19T01:24:47;98606.20;;;13.57;81.27
54554;BME280;40450;55.848;-3.572;2022-08-19T01:27:18;98604.65;;;13.80;81.12
54554;BME280;40450;55.848;-3.572;2022-08-19T01:29:48;98601.51;;;13.60;81.60
54554;BME280;40450;55.848;-3.572;2022-08-19T01:32:18;98602.52;;;13.51;81.77
54554;BME280;40450;55.848;-3.572;2022-08-19T01:34:48;98610.84;;;12.44;85.33
54554;BME280;40450;55.848;-3.572;2022-08-19T01:37:19;98612.66;;;12.23;86.43
54554;BME280;40450;55.848;-3.572;2022-08-19T01:39:49;98612.08;;;11.73;87.84
54554;BME280;40450;55.848;-3.572;2022-08-19T01:42:20;98610.15;;;11.59;88.27
54554;BME280;40450;55.848;-3.572;2022-08-19T01:44:49;98609.95;;;11.55;88.45
54554;BME280;40450;55.848;-3.572;2022-08-19T01:47:20;98608.19;;;11.76;88.28
54554;BME280;40450;55.848;-3.572;2022-08-19T01:49:50;98605.86;;;11.52;88.94
54554;BME280;40450;55.848;-3.572;2022-08-19T01:52:21;98606.01;;;11.15;90.22
54554;BME280;40450;55.848;-3.572;2022-08-19T01:54:51;98615.59;;;10.98;91.01
54554;BME280;40450;55.848;-3.572;2022-08-19T01:57:33;98617.80;;;11.04;90.57
54554;BME280;40450;55.848;-3.572;2022-08-19T01:59:53;98627.63;;;10.70;92.15
54554;BME280;40450;55.848;-3.572;2022-08-19T02:02:28;98628.18;;;10.64;92.45
54554;BME280;40450;55.848;-3.572;2022-08-19T02:04:54;98625.95;;;10.10;93.96
54554;BME280;40450;55.848;-3.572;2022-08-19T02:07:23;98626.67;;;10.20;94.12
54554;BME280;40450;55.848;-3.572;2022-08-19T02:09:53;98621.50;;;10.36;93.83
54554;BME280;40450;55.848;-3.572;2022-08-19T02:12:24;98620.50;;;10.83;92.93
54554;BME280;40450;55.848;-3.572;2022-08-19T02:15:05;98622.53;;;10.80;92.64
54554;BME280;40450;55.848;-3.572;2022-08-19T02:17:24;98619.43;;;10.95;92.41
54554;BME280;40450;55.848;-3.572;2022-08-19T02:19:55;98622.04;;;11.22;91.78
54554;BME280;40450;55.848;-3.572;2022-08-19T02:22:25;98622.68;;;11.05;92.23
54554;BME280;40450;55.848;-3.572;2022-08-19T02:24:55;98626.54;;;10.61;93.39
54554;BME280;40450;55.848;-3.572;2022-08-19T02:27:45;98625.00;;;10.47;93.95
54554;BME280;40450;55.848;-3.572;2022-08-19T02:29:56;98626.05;;;10.98;92.59
54554;BME280;40450;55.848;-3.572;2022-08-19T02:32:27;98632.70;;;11.15;92.10
54554;BME280;40450;55.848;-3.572;2022-08-19T02:34:57;98635.01;;;11.30;91.49
54554;BME280;40450;55.848;-3.572;2022-08-19T02:37:27;98633.20;;;11.13;91.96
54554;BME280;40450;55.848;-3.572;2022-08-19T02:39:59;98633.19;;;11.64;90.87
54554;BME280;40450;55.848;-3.572;2022-08-19T02:42:29;98636.10;;;11.29;91.46
54554;BME280;40450;55.848;-3.572;2022-08-19T02:44:59;98638.70;;;11.04;91.99
54554;BME280;40450;55.848;-3.572;2022-08-19T02:47:29;98640.62;;;10.61;93.17
54554;BME280;40450;55.848;-3.572;2022-08-19T02:50:02;98639.83;;;10.55;93.69
54554;BME280;40450;55.848;-3.572;2022-08-19T02:52:32;98636.56;;;10.52;93.67
54554;BME280;40450;55.848;-3.572;2022-08-19T02:55:01;98639.75;;;10.39;93.78
54554;BME280;40450;55.848;-3.572;2022-08-19T02:57:36;98649.68;;;10.63;93.15
54554;BME280;40450;55.848;-3.572;2022-08-19T03:00:07;98644.77;;;10.92;92.57
54554;BME280;40450;55.848;-3.572;2022-08-19T03:02:31;98647.54;;;10.00;94.51
54554;BME280;40450;55.848;-3.572;2022-08-19T03:05:04;98652.84;;;10.36;93.87
54554;BME280;40450;55.848;-3.572;2022-08-19T03:07:32;98649.36;;;10.61;93.00
54554;BME280;40450;55.848;-3.572;2022-08-19T03:10:03;98649.12;;;10.37;93.40
54554;BME280;40450;55.848;-3.572;2022-08-19T03:12:36;98652.56;;;10.22;93.63
54554;BME280;40450;55.848;-3.572;2022-08-19T03:15:09;98653.64;;;10.51;93.29
54554;BME280;40450;55.848;-3.572;2022-08-19T03:17:34;98660.42;;;9.94;94.32
54554;BME280;40450;55.848;-3.572;2022-08-19T03:20:05;98656.74;;;9.85;94.55
54554;BME280;40450;55.848;-3.572;2022-08-19T03:22:35;98658.80;;;10.74;92.89
54554;BME280;40450;55.848;-3.572;2022-08-19T03:25:07;98659.89;;;10.64;92.71
54554;BME280;40450;55.848;-3.572;2022-08-19T03:27:35;98660.29;;;10.81;92.12
54554;BME280;40450;55.848;-3.572;2022-08-19T03:30:06;98664.98;;;10.64;92.50
54554;BME280;40450;55.848;-3.572;2022-08-19T03:32:36;98661.81;;;10.76;92.09
54554;BME280;40450;55.848;-3.572;2022-08-19T03:35:07;98664.45;;;11.01;91.58
54554;BME280;40450;55.848;-3.572;2022-08-19T03:37:36;98661.52;;;11.18;91.31
54554;BME280;40450;55.848;-3.572;2022-08-19T03:40:09;98660.49;;;10.82;92.20
54554;BME280;40450;55.848;-3.572;2022-08-19T03:42:37;98660.67;;;10.97;91.82
54554;BME280;40450;55.848;-3.572;2022-08-19T03:45:09;98658.84;;;11.41;91.13
54554;BME280;40450;55.848;-3.572;2022-08-19T03:47:38;98656.88;;;10.85;92.70
54554;BME280;40450;55.848;-3.572;2022-08-19T03:50:08;98658.13;;;10.97;92.30
54554;BME280;40450;55.848;-3.572;2022-08-19T03:52:39;98657.84;;;10.60;93.50
54554;BME280;40450;55.848;-3.572;2022-08-19T03:55:14;98658.97;;;10.98;92.65
54554;BME280;40450;55.848;-3.572;2022-08-19T03:57:39;98663.75;;;10.45;93.71
54554;BME280;40450;55.848;-3.572;2022-08-19T04:00:12;98664.71;;;10.60;93.90
54554;BME280;40450;55.848;-3.572;2022-08-19T04:02:39;98672.86;;;10.95;93.38
54554;BME280;40450;55.848;-3.572;2022-08-19T04:05:10;98673.67;;;10.40;94.66
54554;BME280;40450;55.848;-3.572;2022-08-19T04:07:45;98673.63;;;10.30;94.91
54554;BME280;40450;55.848;-3.572;2022-08-19T04:10:11;98669.58;;;10.95;93.51
54554;BME280;40450;55.848;-3.572;2022-08-19T04:12:40;98668.35;;;11.27;92.35
54554;BME280;40450;55.848;-3.572;2022-08-19T04:15:12;98670.76;;;11.16;92.70
54554;BME280;40450;55.848;-3.572;2022-08-19T04:17:41;98673.19;;;11.82;91.07
54554;BME280;40450;55.848;-3.572;2022-08-19T04:20:11;98670.17;;;10.76;93.56
54554;BME280;40450;55.848;-3.572;2022-08-19T04:22:42;98671.62;;;11.22;92.95
54554;BME280;40450;55.848;-3.572;2022-08-19T04:25:13;98676.58;;;10.96;92.79
54554;BME280;40450;55.848;-3.572;2022-08-19T04:27:45;98678.35;;;11.32;92.47
54554;BME280;40450;55.848;-3.572;2022-08-19T04:30:18;98675.73;;;11.61;91.66
54554;BME280;40450;55.848;-3.572;2022-08-19T04:32:49;98676.31;;;11.60;91.19
54554;BME280;40450;55.848;-3.572;2022-08-19T04:35:16;98680.48;;;11.25;92.20
54554;BME280;40450;55.848;-3.572;2022-08-19T04:37:44;98680.32;;;11.28;92.56
54554;BME280;40450;55.848;-3.572;2022-08-19T04:40:15;98681.47;;;11.78;91.24
54554;BME280;40450;55.848;-3.572;2022-08-19T04:42:45;98677.79;;;11.17;92.65
54554;BME280;40450;55.848;-3.572;2022-08-19T04:45:16;98678.79;;;10.96;93.38
54554;BME280;40450;55.848;-3.572;2022-08-19T04:47:45;98678.14;;;10.94;93.62
54554;BME280;40450;55.848;-3.572;2022-08-19T04:50:17;98674.35;;;11.35;93.16
54554;BME280;40450;55.848;-3.572;2022-08-19T04:52:47;98671.17;;;11.28;92.74
54554;BME280;40450;55.848;-3.572;2022-08-19T04:55:17;98677.48;;;10.76;93.98
54554;BME280;40450;55.848;-3.572;2022-08-19T04:57:48;98673.80;;;11.15;92.97
54554;BME280;40450;55.848;-3.572;2022-08-19T05:02:48;98676.16;;;11.21;92.82
54554;BME280;40450;55.848;-3.572;2022-08-19T05:05:19;98675.37;;;12.03;90.91
54554;BME280;40450;55.848;-3.572;2022-08-19T05:07:49;98672.96;;;11.96;90.65
54554;BME280;40450;55.848;-3.572;2022-08-19T05:10:20;98681.57;;;12.19;89.82
54554;BME280;40450;55.848;-3.572;2022-08-19T05:12:50;98688.08;;;11.67;91.00
54554;BME280;40450;55.848;-3.572;2022-08-19T05:15:25;98682.32;;;12.15;90.09
54554;BME280;40450;55.848;-3.572;2022-08-19T05:17:50;98682.59;;;12.03;89.65
54554;BME280;40450;55.848;-3.572;2022-08-19T05:20:21;98688.74;;;12.00;90.01
54554;BME280;40450;55.848;-3.572;2022-08-19T05:22:51;98692.49;;;11.61;91.00
54554;BME280;40450;55.848;-3.572;2022-08-19T05:25:22;98702.26;;;11.30;91.82
54554;BME280;40450;55.848;-3.572;2022-08-19T05:27:52;98707.47;;;11.32;92.08
54554;BME280;40450;55.848;-3.572;2022-08-19T05:30:22;98706.36;;;11.69;91.16
54554;BME280;40450;55.848;-3.572;2022-08-19T05:32:52;98711.57;;;10.78;92.59
54554;BME280;40450;55.848;-3.572;2022-08-19T05:35:23;98713.27;;;11.28;91.72
54554;BME280;40450;55.848;-3.572;2022-08-19T05:37:54;98715.26;;;11.18;91.77
54554;BME280;40450;55.848;-3.572;2022-08-19T05:40:23;98723.39;;;11.49;91.57
54554;BME280;40450;55.848;-3.572;2022-08-19T05:42:53;98721.98;;;11.98;90.00
54554;BME280;40450;55.848;-3.572;2022-08-19T05:45:24;98719.95;;;11.56;90.85
54554;BME280;40450;55.848;-3.572;2022-08-19T05:47:54;98732.09;;;11.46;91.50
54554;BME280;40450;55.848;-3.572;2022-08-19T05:50:24;98725.15;;;11.73;91.38
54554;BME280;40450;55.848;-3.572;2022-08-19T05:52:55;98724.67;;;11.30;92.14
54554;BME280;40450;55.848;-3.572;2022-08-19T05:55:26;98730.82;;;11.40;92.11
54554;BME280;40450;55.848;-3.572;2022-08-19T05:57:56;98731.37;;;11.35;92.22
54554;BME280;40450;55.848;-3.572;2022-08-19T06:00:26;98735.31;;;11.67;91.40
54554;BME280;40450;55.848;-3.572;2022-08-19T06:02:56;98735.59;;;11.83;90.93
54554;BME280;40450;55.848;-3.572;2022-08-19T06:05:26;98737.78;;;12.54;89.25
54554;BME280;40450;55.848;-3.572;2022-08-19T06:07:57;98744.65;;;13.23;88.17
54554;BME280;40450;55.848;-3.572;2022-08-19T06:10:32;98749.31;;;12.72;87.97
54554;BME280;40450;55.848;-3.572;2022-08-19T06:12:59;98747.06;;;11.97;90.43
54554;BME280;40450;55.848;-3.572;2022-08-19T06:15:27;98752.43;;;12.08;90.16
54554;BME280;40450;55.848;-3.572;2022-08-19T06:17:57;98749.30;;;11.97;91.10
54554;BME280;40450;55.848;-3.572;2022-08-19T06:20:29;98748.72;;;11.83;91.24
54554;BME280;40450;55.848;-3.572;2022-08-19T06:22:59;98752.38;;;11.63;91.83
54554;BME280;40450;55.848;-3.572;2022-08-19T06:25:29;98748.39;;;11.62;92.23
54554;BME280;40450;55.848;-3.572;2022-08-19T06:27:59;98751.02;;;11.46;92.39
54554;BME280;40450;55.848;-3.572;2022-08-19T06:30:30;98755.71;;;11.13;93.17
54554;BME280;40450;55.848;-3.572;2022-08-19T06:33:00;98756.06;;;11.42;92.54
54554;BME280;40450;55.848;-3.572;2022-08-19T06:35:38;98753.79;;;11.26;92.42
54554;BME280;40450;55.848;-3.572;2022-08-19T06:38:01;98755.40;;;11.57;92.12
54554;BME280;40450;55.848;-3.572;2022-08-19T06:40:31;98759.87;;;11.20;93.11
54554;BME280;40450;55.848;-3.572;2022-08-19T06:43:02;98761.94;;;11.79;92.00
54554;BME280;40450;55.848;-3.572;2022-08-19T06:45:32;98769.88;;;11.58;92.17
54554;BME280;40450;55.848;-3.572;2022-08-19T06:48:04;98773.92;;;12.40;90.43
54554;BME280;40450;55.848;-3.572;2022-08-19T06:50:34;98774.56;;;12.04;91.04
54554;BME280;40450;55.848;-3.572;2022-08-19T06:53:04;98779.88;;;11.30;92.48
54554;BME280;40450;55.848;-3.572;2022-08-19T06:55:33;98779.68;;;11.34;92.93
54554;BME280;40450;55.848;-3.572;2022-08-19T06:58:04;98783.20;;;11.78;91.99
54554;BME280;40450;55.848;-3.572;2022-08-19T07:00:36;98783.06;;;11.79;91.27
54554;BME280;40450;55.848;-3.572;2022-08-19T07:03:04;98785.09;;;11.36;92.38
54554;BME280;40450;55.848;-3.572;2022-08-19T07:05:39;98784.54;;;11.60;91.58
54554;BME280;40450;55.848;-3.572;2022-08-19T07:08:05;98783.72;;;11.58;91.69
54554;BME280;40450;55.848;-3.572;2022-08-19T07:10:36;98785.92;;;11.65;91.67
54554;BME280;40450;55.848;-3.572;2022-08-19T07:13:14;98784.97;;;11.45;91.85
54554;BME280;40450;55.848;-3.572;2022-08-19T07:15:37;98783.71;;;11.67;91.57
54554;BME280;40450;55.848;-3.572;2022-08-19T07:18:11;98783.89;;;11.91;90.97
54554;BME280;40450;55.848;-3.572;2022-08-19T07:20:37;98782.68;;;12.44;89.81
54554;BME280;40450;55.848;-3.572;2022-08-19T07:23:13;98777.14;;;12.48;88.60
54554;BME280;40450;55.848;-3.572;2022-08-19T07:25:38;98785.06;;;12.81;87.51
54554;BME280;40450;55.848;-3.572;2022-08-19T07:28:07;98786.96;;;12.38;88.94
54554;BME280;40450;55.848;-3.572;2022-08-19T07:30:38;98791.41;;;12.60;88.30
54554;BME280;40450;55.848;-3.572;2022-08-19T07:33:08;98795.15;;;12.64;88.06
54554;BME280;40450;55.848;-3.572;2022-08-19T07:35:43;98799.98;;;12.28;88.94
54554;BME280;40450;55.848;-3.572;2022-08-19T07:38:09;98803.69;;;13.10;87.70
54554;BME280;40450;55.848;-3.572;2022-08-19T07:40:40;98807.32;;;13.54;86.13
54554;BME280;40450;55.848;-3.572;2022-08-19T07:43:15;98806.93;;;12.28;88.29
54554;BME280;40450;55.848;-3.572;2022-08-19T07:45:40;98807.84;;;11.92;90.20
54554;BME280;40450;55.848;-3.572;2022-08-19T07:48:10;98802.42;;;12.29;89.72
54554;BME280;40450;55.848;-3.572;2022-08-19T07:50:41;98811.12;;;12.81;88.48
54554;BME280;40450;55.848;-3.572;2022-08-19T07:53:12;98808.86;;;13.54;86.78
54554;BME280;40450;55.848;-3.572;2022-08-19T07:55:42;98813.30;;;13.81;85.32
54554;BME280;40450;55.848;-3.572;2022-08-19T07:58:14;98819.56;;;13.75;85.18
54554;BME280;40450;55.848;-3.572;2022-08-19T08:00:50;98828.08;;;13.45;85.60
54554;BME280;40450;55.848;-3.572;2022-08-19T08:03:13;98822.90;;;12.92;86.93
54554;BME280;40450;55.848;-3.572;2022-08-19T08:05:43;98820.30;;;12.37;88.38
54554;BME280;40450;55.848;-3.572;2022-08-19T08:08:13;98819.54;;;13.03;87.33
54554;BME280;40450;55.848;-3.572;2022-08-19T08:10:43;98819.59;;;12.89;87.90
54554;BME280;40450;55.848;-3.572;2022-08-19T08:13:13;98813.79;;;13.56;86.84
54554;BME280;40450;55.848;-3.572;2022-08-19T08:15:44;98814.83;;;12.64;88.26
54554;BME280;40450;55.848;-3.572;2022-08-19T08:18:14;98817.67;;;12.80;87.42
54554;BME280;40450;55.848;-3.572;2022-08-19T08:20:44;98817.68;;;13.00;87.42
54554;BME280;40450;55.848;-3.572;2022-08-19T08:23:14;98824.13;;;13.01;86.76
54554;BME280;40450;55.848;-3.572;2022-08-19T08:25:45;98829.19;;;13.70;86.06
54554;BME280;40450;55.848;-3.572;2022-08-19T08:28:15;98827.83;;;12.84;87.05
54554;BME280;40450;55.848;-3.572;2022-08-19T08:30:47;98830.36;;;13.12;87.17
54554;BME280;40450;55.848;-3.572;2022-08-19T08:33:18;98824.52;;;12.93;87.67
54554;BME280;40450;55.848;-3.572;2022-08-19T08:35:46;98822.53;;;13.94;85.33
54554;BME280;40450;55.848;-3.572;2022-08-19T08:38:16;98829.21;;;13.57;84.43
54554;BME280;40450;55.848;-3.572;2022-08-19T08:40:50;98829.73;;;13.55;85.04
54554;BME280;40450;55.848;-3.572;2022-08-19T08:43:22;98830.61;;;14.08;83.67
54554;BME280;40450;55.848;-3.572;2022-08-19T08:45:53;98827.73;;;14.40;83.25
54554;BME280;40450;55.848;-3.572;2022-08-19T08:48:22;98827.76;;;13.95;82.48
54554;BME280;40450;55.848;-3.572;2022-08-19T08:50:50;98831.01;;;13.62;84.02
54554;BME280;40450;55.848;-3.572;2022-08-19T08:53:20;98831.52;;;13.41;84.50
54554;BME280;40450;55.848;-3.572;2022-08-19T08:55:50;98832.58;;;13.30;84.09
54554;BME280;40450;55.848;-3.572;2022-08-19T08:58:25;98832.43;;;13.87;83.36
54554;BME280;40450;55.848;-3.572;2022-08-19T09:00:50;98830.50;;;13.25;83.83
54554;BME280;40450;55.848;-3.572;2022-08-19T09:03:23;98832.52;;;13.27;84.77
54554;BME280;40450;55.848;-3.572;2022-08-19T09:05:59;98830.73;;;13.28;84.60
54554;BME280;40450;55.848;-3.572;2022-08-19T09:08:30;98830.76;;;13.43;83.64
54554;BME280;40450;55.848;-3.572;2022-08-19T09:10:54;98827.37;;;13.75;83.94
54554;BME280;40450;55.848;-3.572;2022-08-19T09:13:31;98818.28;;;14.38;82.14
54554;BME280;40450;55.848;-3.572;2022-08-19T09:15:55;98818.63;;;14.71;80.64
54554;BME280;40450;55.848;-3.572;2022-08-19T09:18:23;98820.01;;;15.15;79.13
54554;BME280;40450;55.848;-3.572;2022-08-19T09:20:53;98824.93;;;15.55;78.03
54554;BME280;40450;55.848;-3.572;2022-08-19T09:23:23;98825.44;;;15.79;77.44
54554;BME280;40450;55.848;-3.572;2022-08-19T09:25:54;98820.98;;;15.82;76.13
54554;BME280;40450;55.848;-3.572;2022-08-19T09:28:24;98825.02;;;16.05;75.14
54554;BME280;40450;55.848;-3.572;2022-08-19T09:30:55;98825.68;;;16.14;73.85
54554;BME280;40450;55.848;-3.572;2022-08-19T09:33:25;98825.80;;;16.04;73.96
54554;BME280;40450;55.848;-3.572;2022-08-19T09:36:02;98820.92;;;16.47;72.17
54554;BME280;40450;55.848;-3.572;2022-08-19T09:38:26;98827.81;;;16.33;72.30
54554;BME280;40450;55.848;-3.572;2022-08-19T09:41:02;98825.26;;;15.45;74.90
54554;BME280;40450;55.848;-3.572;2022-08-19T09:43:27;98824.75;;;15.76;74.81
54554;BME280;40450;55.848;-3.572;2022-08-19T09:45:58;98819.27;;;16.20;74.80
54554;BME280;40450;55.848;-3.572;2022-08-19T09:48:29;98817.28;;;16.01;74.50
54554;BME280;40450;55.848;-3.572;2022-08-19T09:51:03;98808.95;;;15.88;74.24
54554;BME280;40450;55.848;-3.572;2022-08-19T09:53:29;98814.36;;;15.00;76.01
54554;BME280;40450;55.848;-3.572;2022-08-19T09:55:59;98807.06;;;14.77;77.37
54554;BME280;40450;55.848;-3.572;2022-08-19T09:58:30;98811.99;;;14.59;77.54
54554;BME280;40450;55.848;-3.572;2022-08-19T10:01:01;98803.87;;;14.80;76.79
54554;BME280;40450;55.848;-3.572;2022-08-19T10:03:32;98800.47;;;16.08;73.82
54554;BME280;40450;55.848;-3.572;2022-08-19T10:06:02;98804.43;;;15.64;74.31
54554;BME280;40450;55.848;-3.572;2022-08-19T10:08:37;98803.98;;;15.04;76.92
54554;BME280;40450;55.848;-3.572;2022-08-19T10:11:03;98804.05;;;14.71;78.08
54554;BME280;40450;55.848;-3.572;2022-08-19T10:13:32;98814.58;;;15.20;77.13
54554;BME280;40450;55.848;-3.572;2022-08-19T10:16:06;98808.43;;;14.99;75.67
54554;BME280;40450;55.848;-3.572;2022-08-19T10:18:32;98809.06;;;14.69;75.73
54554;BME280;40450;55.848;-3.572;2022-08-19T10:21:05;98801.80;;;15.08;76.87
54554;BME280;40450;55.848;-3.572;2022-08-19T10:23:33;98793.60;;;14.89;76.39
54554;BME280;40450;55.848;-3.572;2022-08-19T10:26:04;98787.05;;;14.82;76.35
54554;BME280;40450;55.848;-3.572;2022-08-19T10:28:34;98787.04;;;14.85;76.55
54554;BME280;40450;55.848;-3.572;2022-08-19T10:31:05;98793.98;;;15.21;76.28
54554;BME280;40450;55.848;-3.572;2022-08-19T10:33:35;98787.29;;;15.78;74.94
54554;BME280;40450;55.848;-3.572;2022-08-19T10:36:08;98784.48;;;15.81;74.50
54554;BME280;40450;55.848;-3.572;2022-08-19T10:38:36;98782.57;;;15.70;73.49
54554;BME280;40450;55.848;-3.572;2022-08-19T10:41:08;98789.06;;;15.08;74.35
54554;BME280;40450;55.848;-3.572;2022-08-19T10:43:37;98782.21;;;14.56;76.07
54554;BME280;40450;55.848;-3.572;2022-08-19T10:46:09;98776.46;;;14.69;75.81
54554;BME280;40450;55.848;-3.572;2022-08-19T10:48:37;98771.86;;;14.09;77.97
54554;BME280;40450;55.848;-3.572;2022-08-19T10:51:09;98789.39;;;14.00;78.54
54554;BME280;40450;55.848;-3.572;2022-08-19T10:56:09;98786.88;;;14.79;76.64
54554;BME280;40450;55.848;-3.572;2022-08-19T10:58:39;98784.68;;;15.74;74.62
54554;BME280;40450;55.848;-3.572;2022-08-19T11:01:09;98785.68;;;16.01;71.40
54554;BME280;40450;55.848;-3.572;2022-08-19T11:03:40;98786.63;;;16.59;70.14
54554;BME280;40450;55.848;-3.572;2022-08-19T11:06:10;98785.51;;;16.23;71.46
54554;BME280;40450;55.848;-3.572;2022-08-19T11:08:40;98788.21;;;17.17;69.52
54554;BME280;40450;55.848;-3.572;2022-08-19T11:11:12;98780.37;;;17.88;67.06
54554;BME280;40450;55.848;-3.572;2022-08-19T11:13:42;98773.00;;;18.45;65.20
54554;BME280;40450;55.848;-3.572;2022-08-19T11:16:15;98781.22;;;17.76;66.35
54554;BME280;40450;55.848;-3.572;2022-08-19T11:18:44;98785.52;;;16.94;67.63
54554;BME280;40450;55.848;-3.572;2022-08-19T11:21:14;98782.46;;;16.88;67.95
54554;BME280;40450;55.848;-3.572;2022-08-19T11:23:44;98777.00;;;16.39;68.86
54554;BME280;40450;55.848;-3.572;2022-08-19T11:26:14;98778.77;;;17.36;67.36
54554;BME280;40450;55.848;-3.572;2022-08-19T11:28:44;98778.19;;;17.49;65.96
54554;BME280;40450;55.848;-3.572;2022-08-19T11:31:16;98785.92;;;17.65;65.83
54554;BME280;40450;55.848;-3.572;2022-08-19T11:33:45;98786.46;;;17.85;64.34
54554;BME280;40450;55.848;-3.572;2022-08-19T11:36:21;98791.34;;;18.04;62.49
54554;BME280;40450;55.848;-3.572;2022-08-19T11:38:46;98794.07;;;18.38;61.01
54554;BME280;40450;55.848;-3.572;2022-08-19T11:41:18;98796.28;;;17.88;62.46
54554;BME280;40450;55.848;-3.572;2022-08-19T11:43:47;98794.27;;;18.36;63.03
54554;BME280;40450;55.848;-3.572;2022-08-19T11:46:17;98805.71;;;17.53;66.18
54554;BME280;40450;55.848;-3.572;2022-08-19T11:48:53;98800.58;;;17.13;66.57
54554;BME280;40450;55.848;-3.572;2022-08-19T11:51:20;98796.52;;;17.85;65.54
54554;BME280;40450;55.848;-3.572;2022-08-19T11:53:48;98797.67;;;17.18;66.80
54554;BME280;40450;55.848;-3.572;2022-08-19T11:56:19;98792.86;;;16.69;68.01
54554;BME280;40450;55.848;-3.572;2022-08-19T11:58:50;98783.76;;;16.61;68.23
54554;BME280;40450;55.848;-3.572;2022-08-19T12:01:22;98789.17;;;17.34;65.06
54554;BME280;40450;55.848;-3.572;2022-08-19T12:03:51;98784.97;;;17.73;64.03
54554;BME280;40450;55.848;-3.572;2022-08-19T12:06:22;98788.48;;;17.67;64.48
54554;BME280;40450;55.848;-3.572;2022-08-19T12:08:51;98789.83;;;17.63;63.10
54554;BME280;40450;55.848;-3.572;2022-08-19T12:11:21;98782.96;;;18.01;61.54
54554;BME280;40450;55.848;-3.572;2022-08-19T12:13:52;98787.84;;;17.57;62.20
54554;BME280;40450;55.848;-3.572;2022-08-19T12:16:24;98785.82;;;17.25;64.98
54554;BME280;40450;55.848;-3.572;2022-08-19T12:18:53;98779.32;;;17.88;64.85
54554;BME280;40450;55.848;-3.572;2022-08-19T12:21:25;98777.11;;;18.25;62.55
54554;BME280;40450;55.848;-3.572;2022-08-19T12:23:53;98786.46;;;17.38;64.16
54554;BME280;40450;55.848;-3.572;2022-08-19T12:26:24;98787.00;;;17.39;64.74
54554;BME280;40450;55.848;-3.572;2022-08-19T12:28:54;98785.65;;;17.47;65.36
54554;BME280;40450;55.848;-3.572;2022-08-19T12:31:23;98778.61;;;18.30;64.49
54554;BME280;40450;55.848;-3.572;2022-08-19T12:33:54;98782.91;;;18.34;62.04
54554;BME280;40450;55.848;-3.572;2022-08-19T12:36:24;98790.14;;;18.10;62.02
54554;BME280;40450;55.848;-3.572;2022-08-19T12:38:58;98788.16;;;18.08;61.39
54554;BME280;40450;55.848;-3.572;2022-08-19T12:41:25;98791.97;;;17.10;64.85
54554;BME280;40450;55.848;-3.572;2022-08-19T12:43:55;98791.72;;;17.29;65.12
54554;BME280;40450;55.848;-3.572;2022-08-19T12:46:25;98793.59;;;18.04;61.98
54554;BME280;40450;55.848;-3.572;2022-08-19T12:48:56;98791.29;;;18.17;62.78
54554;BME280;40450;55.848;-3.572;2022-08-19T12:51:27;98806.20;;;17.90;61.97
54554;BME280;40450;55.848;-3.572;2022-08-19T12:53:56;98800.41;;;18.06;64.01
54554;BME280;40450;55.848;-3.572;2022-08-19T12:56:27;98800.64;;;18.12;62.88
54554;BME280;40450;55.848;-3.572;2022-08-19T12:58:57;98801.71;;;17.51;64.57
54554;BME280;40450;55.848;-3.572;2022-08-19T13:01:28;98799.96;;;17.49;64.12
54554;BME280;40450;55.848;-3.572;2022-08-19T13:03:58;98797.30;;;18.19;61.37
54554;BME280;40450;55.848;-3.572;2022-08-19T13:06:34;98784.09;;;18.54;59.54
54554;BME280;40450;55.848;-3.572;2022-08-19T13:08:58;98788.28;;;18.27;62.39
54554;BME280;40450;55.848;-3.572;2022-08-19T13:11:29;98793.80;;;18.33;62.30